createdAt,value
2024-02-08T00:00:17.087Z,32.50
2024-02-08T00:03:39.310Z,33.40
2024-02-08T00:06:41.311Z,31.20
2024-02-08T00:09:43.236Z,31.90
2024-02-08T00:12:45.161Z,30.80
2024-02-08T00:15:47.024Z,30.80
2024-02-08T00:21:50.684Z,34.30
2024-02-08T00:27:54.615Z,31.50
2024-02-08T00:30:56.578Z,31.70
2024-02-08T00:34:04.276Z,32.00
2024-02-08T00:37:06.349Z,33.80
2024-02-08T00:40:08.816Z,31.60
2024-02-08T00:43:10.773Z,35.10
2024-02-08T00:46:12.557Z,35.80
2024-02-08T00:52:25.030Z,33.40
2024-02-08T00:58:28.575Z,42.90
2024-02-08T01:04:34.508Z,44.50
2024-02-08T01:07:37.369Z,46.60
2024-02-08T01:10:39.158Z,54.20
2024-02-08T01:13:41.317Z,53.10
2024-02-08T01:16:45.980Z,52.80
2024-02-08T01:19:47.787Z,55.40
2024-02-08T01:22:52.927Z,51.90
2024-02-08T01:25:54.846Z,55.30
2024-02-08T01:28:56.578Z,54.70
2024-02-08T01:35:02.009Z,51.90
2024-02-08T01:38:04.217Z,47.60
2024-02-08T01:41:14.916Z,49.70
2024-02-08T01:44:16.861Z,43.10
2024-02-08T01:47:18.915Z,42.40
2024-02-08T01:50:21.051Z,40.80
2024-02-08T01:53:24.781Z,41.70
2024-02-08T01:56:26.741Z,38.00
2024-02-08T02:02:31.069Z,36.20
2024-02-08T02:05:33.141Z,33.60
2024-02-08T02:08:35.138Z,35.30
2024-02-08T02:11:42.983Z,35.80
2024-02-08T02:14:45.094Z,36.50
2024-02-08T02:17:47.094Z,33.90
2024-02-08T02:20:48.964Z,33.50
2024-02-08T02:23:50.944Z,34.80
2024-02-08T02:26:53.941Z,33.00
2024-02-08T02:29:56.367Z,32.10
2024-02-08T02:32:58.928Z,34.20
2024-02-08T02:36:02.458Z,36.70
2024-02-08T02:39:04.388Z,34.00
2024-02-08T02:42:06.474Z,32.90
2024-02-08T02:45:08.866Z,34.40
2024-02-08T02:48:11.913Z,33.70
2024-02-08T02:51:16.556Z,34.30
2024-02-08T02:54:21.358Z,32.70
2024-02-08T02:57:23.112Z,32.90
2024-02-08T03:00:27.884Z,34.60
2024-02-08T03:06:31.551Z,34.10
2024-02-08T03:12:35.245Z,37.60
2024-02-08T03:15:37.659Z,35.50
2024-02-08T03:18:39.678Z,38.30
2024-02-08T03:22:01.040Z,44.30
2024-02-08T03:25:05.980Z,37.40
2024-02-08T03:28:07.935Z,37.20
2024-02-08T03:31:10.002Z,40.30
2024-02-08T03:34:16.253Z,38.50
2024-02-08T03:37:18.441Z,39.00
2024-02-08T03:40:23.921Z,38.90
2024-02-08T03:43:25.981Z,42.20
2024-02-08T03:46:28.363Z,40.00
2024-02-08T03:49:32.812Z,42.20
2024-02-08T03:52:38.248Z,42.20
2024-02-08T03:55:40.395Z,40.20
2024-02-08T03:58:47.640Z,40.60
2024-02-08T04:01:50.284Z,42.60
2024-02-08T04:04:52.167Z,43.80
2024-02-08T04:07:54.025Z,47.50
2024-02-08T04:11:03.468Z,48.60
2024-02-08T04:14:05.352Z,50.30
2024-02-08T04:17:07.267Z,45.00
2024-02-08T04:20:09.434Z,48.80
2024-02-08T04:23:14.671Z,47.30
2024-02-08T04:26:16.516Z,49.60
2024-02-08T04:29:21.346Z,50.70
2024-02-08T04:32:23.273Z,52.90
2024-02-08T04:35:28.666Z,54.30
2024-02-08T04:38:32.751Z,47.80
2024-02-08T04:41:34.701Z,48.30
2024-02-08T04:44:36.544Z,52.70
2024-02-08T04:50:41.026Z,47.80
2024-02-08T04:53:42.889Z,48.10
2024-02-08T04:56:44.564Z,50.00
2024-02-08T05:02:49.088Z,44.10
2024-02-08T05:08:52.977Z,38.50
2024-02-08T05:11:54.897Z,39.00
2024-02-08T05:14:56.750Z,41.60
2024-02-08T05:17:58.660Z,38.00
2024-02-08T05:21:00.981Z,40.30
2024-02-08T05:24:02.956Z,40.20
2024-02-08T05:27:04.641Z,42.20
2024-02-08T05:30:16.005Z,38.10
2024-02-08T05:33:18.482Z,44.60
2024-02-08T05:36:20.524Z,59.40
2024-02-08T05:42:23.964Z,57.80
2024-02-08T05:45:28.749Z,50.70
2024-02-08T05:48:54.126Z,45.90
2024-02-08T05:52:03.618Z,48.40
2024-02-08T05:55:06.062Z,48.30
2024-02-08T05:58:08.302Z,46.10
2024-02-08T06:01:10.501Z,49.00
2024-02-08T06:04:13.098Z,44.20
2024-02-08T06:07:15.056Z,48.60
2024-02-08T06:10:17.180Z,42.60
2024-02-08T06:13:19.348Z,38.40
2024-02-08T06:16:21.308Z,43.40
2024-02-08T06:19:23.103Z,41.70
2024-02-08T06:22:25.054Z,44.60
2024-02-08T06:25:26.817Z,43.10
2024-02-08T06:28:28.825Z,40.50
2024-02-08T06:34:39.015Z,46.60
2024-02-08T06:37:41.711Z,50.80
2024-02-08T06:40:43.459Z,49.00
2024-02-08T06:43:45.281Z,50.30
2024-02-08T06:49:48.815Z,43.20
2024-02-08T06:52:50.632Z,50.70
2024-02-08T06:55:52.390Z,51.30
2024-02-08T06:58:54.316Z,51.60
2024-02-08T07:02:07.920Z,47.50
2024-02-08T07:05:13.109Z,55.50
2024-02-08T07:08:15.574Z,52.50
2024-02-08T07:11:17.787Z,51.20
2024-02-08T07:14:19.658Z,59.50
2024-02-08T07:17:21.536Z,53.10
2024-02-08T07:20:23.401Z,49.50
2024-02-08T07:23:25.395Z,53.40
2024-02-08T07:26:30.366Z,54.10
2024-02-08T07:29:32.055Z,51.80
2024-02-08T07:32:36.902Z,49.80
2024-02-08T07:35:38.870Z,49.20
2024-02-08T07:38:40.702Z,47.40
2024-02-08T07:41:42.628Z,45.30
2024-02-08T07:44:44.628Z,47.60
2024-02-08T07:47:47.251Z,45.50
2024-02-08T07:53:51.076Z,45.60
2024-02-08T08:00:00.336Z,42.50
2024-02-08T08:03:02.974Z,41.90
2024-02-08T08:06:05.107Z,42.80
2024-02-08T08:09:06.911Z,43.30
2024-02-08T08:12:09.135Z,39.30
2024-02-08T08:15:10.976Z,39.60
2024-02-08T08:18:12.877Z,39.10
2024-02-08T08:21:15.046Z,40.10
2024-02-08T08:24:16.776Z,37.70
2024-02-08T08:27:19.040Z,37.70
2024-02-08T08:30:21.194Z,43.10
2024-02-08T08:33:22.988Z,41.30
2024-02-08T08:36:24.693Z,36.90
2024-02-08T08:45:30.163Z,34.20
2024-02-08T08:48:32.240Z,34.60
2024-02-08T08:51:34.420Z,34.00
2024-02-08T08:54:36.209Z,36.30
2024-02-08T08:57:38.799Z,37.00
2024-02-08T09:00:40.853Z,32.90
2024-02-08T09:03:46.635Z,31.90
2024-02-08T09:06:48.635Z,32.50
2024-02-08T09:09:50.763Z,28.50
2024-02-08T09:12:52.724Z,33.40
2024-02-08T09:15:54.755Z,29.60
2024-02-08T09:18:57.616Z,29.60
2024-02-08T09:21:59.629Z,30.30
2024-02-08T09:25:01.915Z,30.20
2024-02-08T09:28:04.267Z,34.60
2024-02-08T09:31:06.666Z,31.60
2024-02-08T09:34:08.688Z,29.20
2024-02-08T09:37:13.705Z,31.40
2024-02-08T09:40:16.896Z,30.70
2024-02-08T09:43:19.603Z,30.90
2024-02-08T09:46:23.394Z,32.10
2024-02-08T09:49:25.577Z,28.00
2024-02-08T09:52:31.116Z,27.90
2024-02-08T09:55:33.157Z,25.00
2024-02-08T09:58:39.283Z,27.60
2024-02-08T10:01:52.555Z,29.20
2024-02-08T10:04:56.031Z,27.80
2024-02-08T10:07:57.965Z,29.00
2024-02-08T10:11:02.605Z,25.50
2024-02-08T10:14:06.307Z,25.60
2024-02-08T10:17:18.039Z,27.80
2024-02-08T10:23:24.185Z,25.30
2024-02-08T10:26:38.982Z,28.90
2024-02-08T10:29:40.973Z,28.80
2024-02-08T10:32:43.424Z,26.90
2024-02-08T10:35:45.257Z,26.70
2024-02-08T10:38:48.150Z,27.50
2024-02-08T10:41:50.319Z,27.60
2024-02-08T10:44:52.227Z,28.70
2024-02-08T10:47:55.685Z,31.20
2024-02-08T10:50:58.308Z,32.30
2024-02-08T10:54:00.248Z,31.70
2024-02-08T10:57:02.239Z,31.20
2024-02-08T11:00:04.605Z,31.80
2024-02-08T11:03:07.331Z,27.00
2024-02-08T11:06:11.247Z,28.00
2024-02-08T11:09:13.386Z,24.80
2024-02-08T11:12:20.579Z,26.50
2024-02-08T11:15:25.083Z,25.70
2024-02-08T11:18:27.044Z,23.40
2024-02-08T11:21:29.328Z,21.30
2024-02-08T11:24:31.444Z,23.70
2024-02-08T11:27:33.521Z,21.70
2024-02-08T11:30:35.838Z,20.70
2024-02-08T11:33:38.441Z,21.70
2024-02-08T11:36:48.574Z,22.60
2024-02-08T11:40:03.188Z,20.90
2024-02-08T11:43:08.040Z,23.70
2024-02-08T11:46:14.766Z,20.70
2024-02-08T11:49:20.658Z,23.90
2024-02-08T11:52:22.750Z,23.00
2024-02-08T11:55:25.011Z,23.10
2024-02-08T11:58:27.138Z,20.60
2024-02-08T12:01:29.220Z,22.40
2024-02-08T12:04:32.207Z,18.00
2024-02-08T12:07:44.027Z,17.90
2024-02-08T12:10:49.626Z,18.20
2024-02-08T12:13:51.695Z,18.70
2024-02-08T12:16:54.720Z,20.60
2024-02-08T12:19:59.556Z,20.40
2024-02-08T12:23:01.591Z,18.60
2024-02-08T12:26:06.477Z,21.20
2024-02-08T12:29:09.074Z,17.70
2024-02-08T12:32:14.443Z,20.10
2024-02-08T12:35:16.444Z,21.20
2024-02-08T12:38:18.506Z,20.80
2024-02-08T12:41:20.668Z,19.00
2024-02-08T12:44:22.571Z,17.90
2024-02-08T12:47:24.441Z,18.60
2024-02-08T12:50:28.825Z,23.10
2024-02-08T12:53:32.263Z,20.30
2024-02-08T12:56:37.130Z,21.10
2024-02-08T12:59:42.925Z,22.80
2024-02-08T13:02:44.737Z,22.20
2024-02-08T13:05:46.861Z,22.00
2024-02-08T13:09:09.141Z,23.20
2024-02-08T13:12:14.264Z,21.40
2024-02-08T13:15:20.531Z,25.00
2024-02-08T13:18:22.530Z,19.70
2024-02-08T13:21:24.493Z,17.30
2024-02-08T13:24:26.351Z,22.30
2024-02-08T13:27:29.169Z,24.10
2024-02-08T13:30:31.225Z,22.40
2024-02-08T13:33:35.377Z,21.20
2024-02-08T13:36:37.428Z,21.90
2024-02-08T13:39:45.781Z,20.20
2024-02-08T13:42:54.496Z,21.30
2024-02-08T13:45:57.808Z,22.60
2024-02-08T13:49:00.023Z,22.50
2024-02-08T13:52:05.287Z,26.00
2024-02-08T13:55:07.387Z,23.50
2024-02-08T13:58:09.353Z,21.50
2024-02-08T14:01:11.508Z,20.60
2024-02-08T14:04:13.467Z,24.00
2024-02-08T14:07:15.675Z,24.50
2024-02-08T14:10:17.659Z,49.10
2024-02-08T14:13:20.866Z,44.50
2024-02-08T14:16:26.066Z,26.50
2024-02-08T14:19:28.032Z,27.80
2024-02-08T14:22:30.060Z,28.90
2024-02-08T14:25:32.216Z,28.70
2024-02-08T14:28:38.393Z,25.60
2024-02-08T14:31:41.504Z,28.10
2024-02-08T14:34:44.935Z,33.10
2024-02-08T14:38:26.325Z,32.40
2024-02-08T14:41:28.797Z,27.60
2024-02-08T14:44:31.052Z,38.00
2024-02-08T14:47:33.101Z,33.60
2024-02-08T14:50:38.583Z,33.80
2024-02-08T14:53:40.670Z,50.10
2024-02-08T14:56:42.603Z,38.40
2024-02-08T14:59:44.599Z,31.70
2024-02-08T15:02:46.512Z,36.10
2024-02-08T15:05:49.773Z,32.60
2024-02-08T15:08:52.677Z,41.10
2024-02-08T15:11:55.380Z,37.70
2024-02-08T15:15:00.625Z,61.60
2024-02-08T15:18:02.724Z,54.80
2024-02-08T15:21:07.996Z,44.80
2024-02-08T15:24:10.241Z,49.80
2024-02-08T15:27:18.141Z,32.90
2024-02-08T15:30:23.157Z,31.20
2024-02-08T15:33:25.448Z,74.80
2024-02-08T15:36:27.622Z,41.10
2024-02-08T15:39:32.897Z,60.40
2024-02-08T15:43:14.973Z,54.70
2024-02-08T15:46:17.075Z,60.60
2024-02-08T15:49:22.260Z,43.00
2024-02-08T15:52:25.522Z,33.80
2024-02-08T15:55:27.563Z,35.70
2024-02-08T15:58:29.556Z,39.60
2024-02-08T16:01:31.708Z,46.50
2024-02-08T16:04:36.357Z,49.70
2024-02-08T16:07:38.717Z,41.70
2024-02-08T16:10:41.369Z,34.60
2024-02-08T16:13:43.223Z,35.90
2024-02-08T16:16:45.189Z,40.20
2024-02-08T16:19:46.947Z,49.90
2024-02-08T16:22:49.181Z,46.60
2024-02-08T16:25:51.813Z,49.50
2024-02-08T16:28:53.749Z,53.40
2024-02-08T16:31:55.666Z,54.70
2024-02-08T16:35:26.517Z,54.30
2024-02-08T16:38:29.264Z,54.50
2024-02-08T16:41:31.629Z,57.60
2024-02-08T16:44:33.530Z,55.60
2024-02-08T16:47:35.777Z,55.20
2024-02-08T16:50:38.275Z,101.50
2024-02-08T16:53:40.630Z,95.40
2024-02-08T16:56:42.516Z,68.10
2024-02-08T16:59:44.456Z,73.20
2024-02-08T17:02:46.419Z,82.00
2024-02-08T17:05:48.466Z,57.60
2024-02-08T17:08:50.473Z,53.40
2024-02-08T17:11:52.435Z,65.30
2024-02-08T17:14:54.485Z,55.00
2024-02-08T17:17:57.415Z,54.40
2024-02-08T17:20:59.515Z,54.50
2024-02-08T17:24:11.421Z,53.80
2024-02-08T17:30:18.821Z,51.80
2024-02-08T17:33:21.046Z,46.40
2024-02-08T17:36:25.525Z,53.10
2024-02-08T17:39:28.638Z,51.00
2024-02-08T17:42:50.867Z,51.20
2024-02-08T17:45:57.139Z,52.60
2024-02-08T17:49:03.020Z,48.90
2024-02-08T17:52:13.989Z,46.60
2024-02-08T17:55:16.396Z,50.00
2024-02-08T17:58:21.452Z,48.90
2024-02-08T18:01:23.898Z,44.00
2024-02-08T18:04:27.378Z,54.70
2024-02-08T18:07:29.565Z,42.10
2024-02-08T18:10:31.774Z,44.60
2024-02-08T18:13:33.833Z,43.90
2024-02-08T18:16:36.142Z,43.80
2024-02-08T18:19:38.584Z,41.90
2024-02-08T18:22:40.856Z,46.20
2024-02-08T18:25:45.508Z,83.60
2024-02-08T18:28:47.554Z,64.20
2024-02-08T18:31:51.943Z,62.60
2024-02-08T18:34:53.985Z,59.40
2024-02-08T18:37:55.971Z,66.60
2024-02-08T18:40:58.057Z,60.30
2024-02-08T18:44:00.125Z,57.90
2024-02-08T18:47:02.887Z,57.30
2024-02-08T18:50:08.807Z,60.30
2024-02-08T18:53:13.366Z,73.70
2024-02-08T18:56:15.569Z,78.40
2024-02-08T18:59:17.362Z,60.70
2024-02-08T19:02:19.855Z,64.40
2024-02-08T19:05:25.298Z,60.30
2024-02-08T19:08:28.372Z,61.70
2024-02-08T19:11:30.500Z,65.60
2024-02-08T19:14:32.344Z,61.70
2024-02-08T19:17:34.715Z,64.10
2024-02-08T19:20:36.991Z,58.60
2024-02-08T19:23:38.894Z,60.10
2024-02-08T19:26:41.130Z,63.20
2024-02-08T19:29:43.650Z,59.80
2024-02-08T19:33:04.900Z,64.70
2024-02-08T19:36:09.359Z,70.30
2024-02-08T19:39:11.251Z,71.10
2024-02-08T19:42:13.262Z,75.20
2024-02-08T19:45:36.528Z,74.60
2024-02-08T19:48:38.632Z,74.00
2024-02-08T19:51:40.585Z,65.00
2024-02-08T19:54:43.062Z,67.60
2024-02-08T19:57:44.977Z,66.20
2024-02-08T20:00:50.181Z,59.90
2024-02-08T20:03:53.393Z,57.30
2024-02-08T20:06:55.397Z,55.10
2024-02-08T20:09:58.455Z,58.50
2024-02-08T20:13:00.714Z,53.10
2024-02-08T20:16:02.668Z,54.60
2024-02-08T20:19:06.117Z,51.60
2024-02-08T20:22:09.625Z,51.90
2024-02-08T20:25:12.389Z,47.00
2024-02-08T20:28:14.412Z,53.00
2024-02-08T20:31:16.359Z,50.60
2024-02-08T20:34:18.303Z,54.80
2024-02-08T20:37:20.666Z,50.00
2024-02-08T20:40:23.463Z,48.50
2024-02-08T20:43:25.622Z,53.00
2024-02-08T20:46:27.742Z,51.90
2024-02-08T20:49:30.000Z,55.90
2024-02-08T20:52:32.287Z,54.20
2024-02-08T20:55:34.195Z,52.00
2024-02-08T20:58:37.753Z,55.30
2024-02-08T21:01:39.600Z,58.30
2024-02-08T21:04:41.496Z,51.40
2024-02-08T21:07:43.358Z,58.10
2024-02-08T21:10:45.388Z,55.80
2024-02-08T21:13:52.640Z,54.40
2024-02-08T21:16:54.508Z,55.60
2024-02-08T21:19:56.968Z,54.70
2024-02-08T21:22:58.717Z,54.60
2024-02-08T21:32:07.698Z,49.00
2024-02-08T21:35:09.595Z,52.40
2024-02-08T21:38:11.650Z,56.10
2024-02-08T21:41:14.697Z,55.80
2024-02-08T21:44:16.686Z,54.70
2024-02-08T21:47:18.491Z,57.00
2024-02-08T21:50:20.673Z,54.80
2024-02-08T21:53:22.464Z,53.70
2024-02-08T21:59:25.901Z,57.70
2024-02-08T22:02:27.893Z,56.90
2024-02-08T22:05:30.071Z,56.90
2024-02-08T22:08:35.240Z,53.50
2024-02-08T22:11:53.650Z,54.90
2024-02-08T22:14:55.732Z,54.90
2024-02-08T22:17:57.759Z,55.30
2024-02-08T22:20:59.657Z,49.90
2024-02-08T22:24:01.705Z,56.00
2024-02-08T22:27:03.891Z,55.70
2024-02-08T22:30:06.795Z,59.50
2024-02-08T22:33:08.824Z,56.90
2024-02-08T22:36:11.170Z,51.70
2024-02-08T22:39:13.557Z,59.00
2024-02-08T22:42:15.460Z,49.20
2024-02-08T22:45:17.617Z,59.30
2024-02-08T22:48:22.774Z,55.40
2024-02-08T22:51:24.667Z,52.70
2024-02-08T22:54:26.584Z,60.60
2024-02-08T22:57:28.533Z,58.80
2024-02-08T23:00:30.571Z,61.10
2024-02-08T23:03:32.778Z,63.50
2024-02-08T23:06:36.830Z,60.30
2024-02-08T23:09:39.577Z,61.70
2024-02-08T23:12:41.566Z,62.80
2024-02-08T23:15:44.893Z,61.60
2024-02-08T23:18:46.969Z,64.20
2024-02-08T23:21:48.880Z,68.90
2024-02-08T23:24:53.584Z,66.70
2024-02-08T23:28:07.638Z,74.60
2024-02-08T23:31:09.671Z,77.50
2024-02-08T23:34:12.768Z,83.90
2024-02-08T23:37:14.876Z,70.50
2024-02-08T23:40:17.346Z,68.20
2024-02-08T23:43:19.666Z,76.60
2024-02-08T23:46:21.737Z,68.10
2024-02-08T23:49:24.097Z,60.60
2024-02-08T23:52:30.856Z,64.40
2024-02-08T23:55:44.583Z,61.80
2024-02-08T23:59:19.548Z,58.50
